createdAt,value
2022-09-01T00:04:27.321Z,23.50
2022-09-01T00:09:29.682Z,23.60
2022-09-01T00:14:38.511Z,23.40
2022-09-01T00:19:44.574Z,23.40
2022-09-01T00:24:47.053Z,23.40
2022-09-01T00:29:49.341Z,23.20
2022-09-01T00:34:51.686Z,23.20
2022-09-01T00:39:53.991Z,23.20
2022-09-01T00:44:56.315Z,23.00
2022-09-01T00:49:59.304Z,22.80
2022-09-01T00:55:15.582Z,22.60
2022-09-01T01:00:23.488Z,22.60
2022-09-01T01:05:40.361Z,22.60
2022-09-01T01:10:42.819Z,22.50
2022-09-01T01:15:45.434Z,22.60
2022-09-01T01:21:08.897Z,22.60
2022-09-01T01:26:11.789Z,22.40
2022-09-01T01:31:18.491Z,22.50
2022-09-01T01:36:32.245Z,22.40
2022-09-01T01:41:40.979Z,22.30
2022-09-01T01:46:53.508Z,22.40
2022-09-01T01:51:58.168Z,22.20
2022-09-01T01:57:05.606Z,22.30
2022-09-01T02:02:08.770Z,22.40
2022-09-01T02:07:13.345Z,22.30
2022-09-01T02:12:19.599Z,22.30
2022-09-01T02:17:22.666Z,22.20
2022-09-01T02:22:25.298Z,22.20
2022-09-01T02:27:29.629Z,22.00
2022-09-01T02:32:32.243Z,22.00
2022-09-01T02:37:34.698Z,22.00
2022-09-01T02:42:41.062Z,22.10
2022-09-01T02:47:48.557Z,22.00
2022-09-01T02:52:52.565Z,22.10
2022-09-01T02:57:58.297Z,21.80
2022-09-01T03:03:02.123Z,21.80
2022-09-01T03:08:10.447Z,21.80
2022-09-01T03:13:17.626Z,21.90
2022-09-01T03:18:20.317Z,21.90
2022-09-01T03:23:25.375Z,21.90
2022-09-01T03:28:28.488Z,21.90
2022-09-01T03:33:32.511Z,21.90
2022-09-01T03:38:35.918Z,21.80
2022-09-01T03:43:47.102Z,21.90
2022-09-01T03:48:53.243Z,21.80
2022-09-01T03:53:56.994Z,21.70
2022-09-01T03:59:01.038Z,21.70
2022-09-01T04:04:07.877Z,21.70
2022-09-01T04:09:11.014Z,21.60
2022-09-01T04:14:15.541Z,21.60
2022-09-01T04:19:25.626Z,21.60
2022-09-01T04:24:31.900Z,21.60
2022-09-01T04:29:34.721Z,21.70
2022-09-01T04:34:39.929Z,21.40
2022-09-01T04:39:53.722Z,21.20
2022-09-01T04:45:00.075Z,21.30
2022-09-01T04:50:14.313Z,21.50
2022-09-01T04:55:19.625Z,21.50
2022-09-01T05:00:23.006Z,21.70
2022-09-01T05:05:25.452Z,21.80
2022-09-01T05:10:30.134Z,21.90
2022-09-01T05:15:46.766Z,22.20
2022-09-01T05:20:52.265Z,22.50
2022-09-01T05:25:55.017Z,22.70
2022-09-01T05:31:01.126Z,23.00
2022-09-01T05:36:08.359Z,23.10
2022-09-01T05:41:15.149Z,23.10
2022-09-01T05:46:20.763Z,22.80
2022-09-01T05:51:44.410Z,22.90
2022-09-01T05:56:49.744Z,23.20
2022-09-01T06:01:56.698Z,23.60
2022-09-01T06:07:09.036Z,23.80
2022-09-01T06:12:19.003Z,24.10
2022-09-01T06:17:25.302Z,24.60
2022-09-01T06:22:29.302Z,25.00
2022-09-01T06:27:38.864Z,25.60
2022-09-01T06:38:27.372Z,27.30
2022-09-01T06:43:30.968Z,28.10
2022-09-01T06:48:33.248Z,30.90
2022-09-01T06:53:43.034Z,33.80
2022-09-01T06:58:48.928Z,36.00
2022-09-01T07:03:53.934Z,36.70
2022-09-01T07:09:44.546Z,37.90
2022-09-01T07:20:27.637Z,39.40
2022-09-01T07:26:00.716Z,37.60
2022-09-01T07:36:29.374Z,36.30
2022-09-01T07:47:20.266Z,35.60
2022-09-01T07:52:42.763Z,34.70
2022-09-01T07:57:46.254Z,33.50
2022-09-01T08:02:56.636Z,32.90
2022-09-01T08:08:01.140Z,32.60
2022-09-01T08:13:15.369Z,32.10
2022-09-01T08:18:18.458Z,31.00
2022-09-01T08:23:26.456Z,30.30
2022-09-01T08:28:29.215Z,29.70
2022-09-01T08:33:35.198Z,29.40
2022-09-01T08:38:38.446Z,29.00
2022-09-01T08:55:28.115Z,28.40
2022-09-01T09:00:42.513Z,28.80
2022-09-01T09:06:07.814Z,28.00
2022-09-01T09:11:50.405Z,27.60
2022-09-01T09:16:56.338Z,27.30
2022-09-01T09:22:02.463Z,26.70
2022-09-01T09:27:05.079Z,26.40
2022-09-01T09:37:32.779Z,26.40
2022-09-01T09:42:36.775Z,26.10
2022-09-01T09:47:45.424Z,26.10
2022-09-01T09:52:48.743Z,25.90
2022-09-01T09:57:54.375Z,25.90
2022-09-01T10:03:04.645Z,26.10
2022-09-01T11:38:20.224Z,25.20
2022-09-01T11:43:27.160Z,24.70
2022-09-01T11:48:31.130Z,24.40
2022-09-01T11:53:33.484Z,24.40
2022-09-01T11:58:39.491Z,24.50
2022-09-01T12:03:42.836Z,24.50
2022-09-01T12:09:02.378Z,24.50
2022-09-01T12:14:11.408Z,24.40
2022-09-01T12:19:26.375Z,24.20
2022-09-01T12:24:32.794Z,24.30
2022-09-01T12:29:35.240Z,24.30
2022-09-01T12:34:42.193Z,24.00
2022-09-01T12:39:48.042Z,24.10
2022-09-01T12:44:57.557Z,24.30
2022-09-01T12:50:03.710Z,24.10
2022-09-01T13:10:43.473Z,24.10
2022-09-01T13:15:49.051Z,24.00
2022-09-01T13:20:53.017Z,24.00
2022-09-01T13:25:55.351Z,23.90
2022-09-01T13:41:47.327Z,23.40
2022-09-01T13:52:13.213Z,23.10
2022-09-01T13:57:16.681Z,23.10
2022-09-01T14:02:19.559Z,23.20
2022-09-01T14:07:22.078Z,23.10
2022-09-01T14:12:24.699Z,23.20
2022-09-01T14:17:27.075Z,23.00
2022-09-01T14:22:30.115Z,22.90
2022-09-01T14:27:32.454Z,22.90
2022-09-01T14:32:36.092Z,22.90
2022-09-01T14:37:38.744Z,22.90
2022-09-01T14:42:43.913Z,22.80
2022-09-01T14:47:48.443Z,22.80
2022-09-01T14:52:53.848Z,23.10
2022-09-01T14:57:57.250Z,23.10
2022-09-01T15:02:59.591Z,23.00
2022-09-01T15:08:01.888Z,22.80
2022-09-01T15:13:04.537Z,22.70
2022-09-01T15:18:06.924Z,22.90
2022-09-01T15:23:10.206Z,22.80
2022-09-01T15:28:13.117Z,22.80
2022-09-01T15:33:16.681Z,22.70
2022-09-01T15:38:19.187Z,22.70
2022-09-01T15:43:22.273Z,22.60
2022-09-01T15:48:26.399Z,22.70
2022-09-01T15:53:28.855Z,22.50
2022-09-01T15:58:44.452Z,22.50
2022-09-01T16:03:54.638Z,22.40
2022-09-01T16:08:56.963Z,22.40
2022-09-01T16:14:01.922Z,22.50
2022-09-01T16:19:16.230Z,22.50
2022-09-01T16:24:18.572Z,22.40
2022-09-01T16:29:40.973Z,22.30
2022-09-01T16:34:48.160Z,22.10
2022-09-01T16:39:58.824Z,22.20
2022-09-01T17:11:35.280Z,22.20
2022-09-01T17:16:45.180Z,22.40
2022-09-01T17:21:53.994Z,22.60
2022-09-01T17:26:58.267Z,22.80
2022-09-01T18:08:43.271Z,23.00
2022-09-01T18:19:16.271Z,22.90
2022-09-01T18:24:22.757Z,22.80
2022-09-01T18:29:29.846Z,22.80
2022-09-01T18:51:06.553Z,23.10
2022-09-01T19:01:33.760Z,23.00
2022-09-01T19:17:36.738Z,23.20
2022-09-01T19:28:05.335Z,23.10
2022-09-01T19:33:11.685Z,23.30
2022-09-01T19:38:20.167Z,23.30
2022-09-01T19:43:23.939Z,23.20
2022-09-01T19:48:35.173Z,22.90
2022-09-01T20:04:20.747Z,22.90
2022-09-01T20:09:35.745Z,23.00
2022-09-01T20:25:12.925Z,23.00
2022-09-01T20:30:26.640Z,22.80
2022-09-01T20:40:42.905Z,22.90
2022-09-01T20:45:46.223Z,22.90
2022-09-01T21:07:08.182Z,22.80
2022-09-01T21:12:37.994Z,22.60
2022-09-01T21:23:16.220Z,22.40
2022-09-01T21:28:21.527Z,22.40
2022-09-01T21:33:26.106Z,22.40
2022-09-01T21:38:29.558Z,22.50
2022-09-01T21:43:36.178Z,22.50
2022-09-01T21:48:38.519Z,22.40
2022-09-01T21:53:40.867Z,22.30
2022-09-01T21:58:43.143Z,22.30
2022-09-01T22:03:52.275Z,22.40
2022-09-01T22:08:54.599Z,22.30
2022-09-01T22:13:59.161Z,22.30
2022-09-01T22:19:01.794Z,22.30
2022-09-01T22:24:05.253Z,22.30
2022-09-01T22:29:08.275Z,22.30
2022-09-01T22:34:10.719Z,22.30
2022-09-01T22:39:14.389Z,22.10
2022-09-01T22:44:16.836Z,22.20
2022-09-01T22:49:19.094Z,22.20
2022-09-01T22:54:21.358Z,22.20
2022-09-01T22:59:24.459Z,22.30
2022-09-01T23:11:48.063Z,22.30
2022-09-01T23:16:51.975Z,22.20
2022-09-01T23:21:54.482Z,22.20
2022-09-01T23:26:56.960Z,22.30
2022-09-01T23:31:59.273Z,22.30
2022-09-01T23:37:01.624Z,22.30
2022-09-01T23:42:04.067Z,22.30
2022-09-01T23:47:06.392Z,22.30
2022-09-01T23:52:09.050Z,22.30
2022-09-01T23:57:12.784Z,22.30
